createdAt,value
2022-10-04T00:01:32.721Z,3.13
2022-10-04T00:04:07.885Z,3.40
2022-10-04T00:06:36.308Z,3.20
2022-10-04T00:09:18.927Z,3.20
2022-10-04T00:11:47.926Z,3.27
2022-10-04T00:14:20.888Z,3.40
2022-10-04T00:16:48.863Z,3.13
2022-10-04T00:19:15.458Z,2.80
2022-10-04T00:22:12.626Z,3.43
2022-10-04T00:25:02.083Z,2.80
2022-10-04T00:27:29.235Z,2.70
2022-10-04T00:30:01.802Z,3.50
2022-10-04T00:32:29.751Z,3.30
2022-10-04T00:34:57.932Z,3.57
2022-10-04T00:37:27.109Z,4.30
2022-10-04T00:40:20.060Z,4.07
2022-10-04T00:43:11.731Z,4.57
2022-10-04T00:45:46.920Z,6.10
2022-10-04T00:48:48.675Z,9.60
2022-10-04T00:51:33.893Z,5.37
2022-10-04T00:54:14.552Z,3.40
2022-10-04T00:56:46.313Z,3.13
2022-10-04T00:59:31.528Z,3.00
2022-10-04T01:02:37.031Z,2.97
2022-10-04T01:05:10.661Z,3.10
2022-10-04T01:07:45.547Z,2.90
2022-10-04T01:10:29.598Z,2.83
2022-10-04T01:13:18.834Z,3.23
2022-10-04T01:16:03.663Z,2.60
2022-10-04T01:18:33.754Z,3.10
2022-10-04T01:21:19.025Z,2.80
2022-10-04T01:23:53.176Z,3.10
2022-10-04T01:26:34.975Z,3.03
2022-10-04T01:29:37.391Z,3.20
2022-10-04T01:32:04.169Z,3.57
2022-10-04T01:34:30.989Z,3.63
2022-10-04T01:37:00.120Z,3.57
2022-10-04T01:39:28.569Z,4.20
2022-10-04T01:42:18.562Z,3.73
2022-10-04T01:44:53.686Z,3.57
2022-10-04T01:47:59.331Z,3.90
2022-10-04T01:50:34.215Z,4.30
2022-10-04T01:53:12.546Z,4.50
2022-10-04T01:55:41.701Z,5.50
2022-10-04T01:58:16.324Z,5.43
2022-10-04T02:00:58.538Z,4.93
2022-10-04T02:03:54.307Z,4.50
2022-10-04T02:06:22.596Z,4.17
2022-10-04T02:08:51.843Z,4.83
2022-10-04T02:11:21.859Z,3.73
2022-10-04T02:13:51.720Z,3.97
2022-10-04T02:16:19.966Z,4.00
2022-10-04T02:18:47.171Z,3.33
2022-10-04T02:21:16.206Z,3.67
2022-10-04T02:23:44.503Z,4.40
2022-10-04T02:26:12.187Z,4.40
2022-10-04T02:28:39.218Z,3.73
2022-10-04T02:31:26.784Z,3.63
2022-10-04T02:33:57.904Z,4.13
2022-10-04T02:36:28.009Z,3.57
2022-10-04T02:39:12.848Z,3.20
2022-10-04T02:41:44.803Z,3.40
2022-10-04T02:44:41.034Z,3.57
2022-10-04T02:47:25.235Z,3.60
2022-10-04T02:49:53.658Z,3.20
2022-10-04T02:53:11.413Z,2.80
2022-10-04T02:55:38.662Z,3.20
2022-10-04T02:58:10.640Z,3.40
2022-10-04T03:00:48.144Z,3.43
2022-10-04T03:03:34.605Z,3.77
2022-10-04T03:06:07.879Z,4.20
2022-10-04T03:08:43.470Z,4.33
